createdAt,value
2018-12-01T00:01:21.544Z,28.60
2018-12-01T00:03:51.621Z,31.50
2018-12-01T00:06:21.761Z,29.00
2018-12-01T00:08:51.780Z,30.40
2018-12-01T00:11:21.953Z,35.90
2018-12-01T00:13:52.318Z,29.90
2018-12-01T00:16:22.381Z,29.83
2018-12-01T00:18:52.412Z,26.83
2018-12-01T00:21:22.879Z,28.90
2018-12-01T00:23:53.060Z,28.30
2018-12-01T00:26:23.058Z,30.13
2018-12-01T00:28:53.065Z,30.30
2018-12-01T00:31:23.670Z,36.70
2018-12-01T00:33:53.728Z,36.87
2018-12-01T00:36:24.482Z,33.03
2018-12-01T00:38:56.214Z,31.83
2018-12-01T00:41:26.841Z,30.00
2018-12-01T00:43:57.367Z,32.67
2018-12-01T00:46:29.112Z,30.73
2018-12-01T00:49:00.238Z,32.83
2018-12-01T00:51:30.335Z,31.13
2018-12-01T00:54:00.829Z,35.97
2018-12-01T00:56:30.832Z,35.00
2018-12-01T00:59:01.511Z,35.57
2018-12-01T01:01:31.607Z,37.60
2018-12-01T01:04:02.242Z,32.90
2018-12-01T01:06:33.144Z,34.60
2018-12-01T01:09:03.671Z,36.47
2018-12-01T01:11:33.668Z,36.33
2018-12-01T01:14:04.177Z,39.93
2018-12-01T01:16:34.694Z,37.80
2018-12-01T01:19:05.171Z,38.27
2018-12-01T01:21:35.683Z,39.13
2018-12-01T01:24:06.196Z,39.00
2018-12-01T01:26:36.232Z,43.37
2018-12-01T01:29:06.996Z,44.40
2018-12-01T01:31:37.741Z,41.83
2018-12-01T01:34:07.839Z,39.93
2018-12-01T01:36:39.328Z,42.43
2018-12-01T01:39:09.880Z,41.90
2018-12-01T01:41:40.411Z,43.80
2018-12-01T01:44:10.927Z,51.00
2018-12-01T01:46:41.622Z,41.97
2018-12-01T01:49:12.223Z,46.27
2018-12-01T01:51:43.236Z,44.57
2018-12-01T01:54:13.859Z,44.67
2018-12-01T01:56:44.704Z,48.03
2018-12-01T01:59:15.248Z,50.30
2018-12-01T02:01:45.252Z,50.37
2018-12-01T02:04:15.757Z,50.00
2018-12-01T02:06:46.384Z,52.60
2018-12-01T02:09:17.237Z,51.47
2018-12-01T02:11:47.987Z,52.80
2018-12-01T02:14:18.548Z,57.07
2018-12-01T02:16:49.751Z,57.03
2018-12-01T02:19:20.465Z,57.90
2018-12-01T02:21:51.587Z,52.80
2018-12-01T02:24:22.247Z,59.83
2018-12-01T02:26:53.543Z,62.20
2018-12-01T02:29:24.076Z,56.07
2018-12-01T02:31:54.570Z,57.60
2018-12-01T02:34:25.067Z,52.23
2018-12-01T02:36:55.538Z,62.90
2018-12-01T02:39:26.936Z,56.40
2018-12-01T02:41:57.605Z,61.70
2018-12-01T02:44:39.052Z,64.30
2018-12-01T02:47:11.427Z,60.33
2018-12-01T02:49:42.119Z,64.63
2018-12-01T02:52:12.764Z,60.53
2018-12-01T02:54:42.775Z,62.87
2018-12-01T02:57:13.763Z,63.40
2018-12-01T02:59:44.296Z,70.80
2018-12-01T03:02:14.564Z,68.40
2018-12-01T03:04:45.912Z,62.40
2018-12-01T03:07:16.462Z,63.93
2018-12-01T03:09:47.084Z,63.17
2018-12-01T03:12:18.087Z,67.27
2018-12-01T03:14:48.592Z,64.47
2018-12-01T03:17:19.232Z,67.37
2018-12-01T03:19:49.798Z,65.70
2018-12-01T03:22:20.675Z,68.93
2018-12-01T03:24:51.696Z,71.03
2018-12-01T03:27:21.684Z,71.80
2018-12-01T03:29:52.843Z,69.50
2018-12-01T03:32:22.812Z,69.90
2018-12-01T03:34:53.611Z,70.10
2018-12-01T03:37:24.435Z,66.33
2018-12-01T03:39:55.327Z,68.87
2018-12-01T03:42:25.312Z,69.20
2018-12-01T03:44:55.378Z,68.87
2018-12-01T03:47:25.899Z,62.03
2018-12-01T03:49:56.420Z,66.90
2018-12-01T03:52:27.359Z,73.53
2018-12-01T03:54:58.017Z,66.90
2018-12-01T03:57:29.044Z,69.00
2018-12-01T03:59:59.555Z,60.47
2018-12-01T04:02:30.206Z,72.73
2018-12-01T04:05:00.352Z,67.90
2018-12-01T04:07:31.602Z,62.00
2018-12-01T04:10:02.843Z,70.60
2018-12-01T04:12:33.383Z,68.63
2018-12-01T04:15:03.853Z,59.93
2018-12-01T04:17:34.336Z,68.87
2018-12-01T04:20:04.459Z,63.23
2018-12-01T04:22:35.741Z,67.20
2018-12-01T04:25:07.043Z,63.73
2018-12-01T04:27:37.755Z,66.03
2018-12-01T04:30:39.281Z,71.20
2018-12-01T04:33:09.564Z,71.43
2018-12-01T04:35:39.775Z,70.10
2018-12-01T04:38:10.423Z,68.67
2018-12-01T04:40:41.123Z,65.30
2018-12-01T04:43:12.284Z,68.20
2018-12-01T04:45:42.292Z,67.50
2018-12-01T04:48:12.269Z,71.43
2018-12-01T04:50:42.839Z,74.57
2018-12-01T04:53:13.383Z,69.47
2018-12-01T04:55:44.495Z,70.13
2018-12-01T04:58:15.951Z,71.00
2018-12-01T05:00:45.996Z,72.23
2018-12-01T05:03:16.136Z,75.47
2018-12-01T05:05:46.792Z,80.03
2018-12-01T05:08:17.379Z,82.97
2018-12-01T05:10:48.396Z,79.17
2018-12-01T05:13:18.415Z,78.50
2018-12-01T05:15:49.240Z,82.53
2018-12-01T05:18:19.761Z,77.47
2018-12-01T05:20:50.383Z,73.50
2018-12-01T05:23:20.756Z,74.03
2018-12-01T05:25:51.691Z,77.30
2018-12-01T05:28:22.519Z,72.17
2018-12-01T05:30:53.274Z,79.90
2018-12-01T05:33:23.861Z,76.63
2018-12-01T05:35:54.599Z,80.20
2018-12-01T05:38:26.030Z,71.10
2018-12-01T05:40:56.639Z,73.17
2018-12-01T05:43:27.360Z,80.20
2018-12-01T05:45:58.087Z,75.47
2018-12-01T05:48:29.016Z,77.13
2018-12-01T05:50:59.767Z,76.47
2018-12-01T05:53:30.270Z,84.97
2018-12-01T05:56:00.363Z,77.83
2018-12-01T05:58:30.900Z,76.17
2018-12-01T06:01:01.653Z,85.33
2018-12-01T06:03:31.800Z,89.03
2018-12-01T06:06:02.341Z,92.43
2018-12-01T06:08:33.769Z,88.97
2018-12-01T06:11:04.495Z,92.43
2018-12-01T06:13:35.551Z,90.90
2018-12-01T06:16:06.327Z,89.10
2018-12-01T06:18:37.019Z,92.57
2018-12-01T06:21:07.582Z,88.77
2018-12-01T06:23:37.921Z,87.37
2018-12-01T06:26:08.435Z,83.63
2018-12-01T06:28:39.161Z,86.70
2018-12-01T06:31:09.351Z,87.57
2018-12-01T06:33:39.897Z,82.30
2018-12-01T06:36:10.826Z,85.03
2018-12-01T06:38:41.297Z,86.40
2018-12-01T06:41:11.982Z,86.00
2018-12-01T06:43:42.961Z,95.97
2018-12-01T06:46:13.567Z,81.77
2018-12-01T06:48:44.240Z,91.27
2018-12-01T06:51:14.905Z,88.70
2018-12-01T06:53:44.888Z,81.83
2018-12-01T06:56:15.570Z,88.63
2018-12-01T06:58:47.212Z,86.43
2018-12-01T07:01:17.282Z,92.70
2018-12-01T07:03:48.379Z,87.17
2018-12-01T07:06:18.434Z,86.27
2018-12-01T07:08:49.071Z,84.23
2018-12-01T07:11:19.136Z,81.90
2018-12-01T07:13:50.401Z,84.53
2018-12-01T07:16:21.348Z,85.13
2018-12-01T07:19:03.148Z,91.70
2018-12-01T07:21:34.204Z,86.97
2018-12-01T07:24:05.234Z,73.27
2018-12-01T07:26:51.457Z,73.90
2018-12-01T07:29:22.395Z,75.53
2018-12-01T07:31:52.511Z,70.17
2018-12-01T07:34:23.555Z,64.93
2018-12-01T07:36:55.476Z,66.50
2018-12-01T07:39:26.526Z,65.97
2018-12-01T07:41:57.561Z,63.40
2018-12-01T07:44:28.963Z,66.20
2018-12-01T07:46:58.955Z,60.00
2018-12-01T07:49:29.329Z,65.63
2018-12-01T07:51:59.907Z,56.03
2018-12-01T07:54:29.887Z,55.37
2018-12-01T07:57:00.150Z,57.13
2018-12-01T07:59:30.189Z,56.33
2018-12-01T08:02:00.592Z,53.10
2018-12-01T08:04:30.659Z,55.87
2018-12-01T08:07:02.492Z,50.90
2018-12-01T08:09:32.895Z,50.40
2018-12-01T08:12:03.316Z,55.73
2018-12-01T08:14:33.421Z,52.20
2018-12-01T08:17:03.417Z,51.97
2018-12-01T08:19:34.152Z,50.13
2018-12-01T08:22:04.408Z,45.57
2018-12-01T08:24:34.488Z,48.30
2018-12-01T08:27:06.024Z,48.83
2018-12-01T08:29:36.603Z,46.80
2018-12-01T08:32:25.142Z,44.63
2018-12-01T08:34:55.241Z,48.03
2018-12-01T08:37:31.209Z,43.70
2018-12-01T08:40:01.740Z,48.27
2018-12-01T08:42:51.639Z,46.83
2018-12-01T08:45:25.331Z,44.20
2018-12-01T08:47:58.895Z,43.80
2018-12-01T08:50:33.351Z,42.50
2018-12-01T08:53:04.150Z,48.97
2018-12-01T08:55:53.336Z,40.63
2018-12-01T08:58:23.914Z,39.77
2018-12-01T09:00:53.912Z,37.67
2018-12-01T09:03:24.800Z,40.20
2018-12-01T09:06:06.582Z,39.57
2018-12-01T09:08:37.160Z,35.33
2018-12-01T09:11:07.308Z,37.87
2018-12-01T09:13:38.633Z,36.57
2018-12-01T09:16:09.086Z,34.13
2018-12-01T09:18:39.587Z,37.37
2018-12-01T09:21:10.267Z,34.17
2018-12-01T09:23:40.514Z,37.13
2018-12-01T09:26:19.917Z,39.97
2018-12-01T09:28:50.028Z,41.97
2018-12-01T09:31:21.083Z,38.43
2018-12-01T09:33:51.295Z,40.23
2018-12-01T09:36:42.773Z,39.17
2018-12-01T09:39:17.672Z,36.50
2018-12-01T09:41:48.584Z,40.03
2018-12-01T09:44:20.021Z,41.13
2018-12-01T09:46:51.144Z,40.53
2018-12-01T09:49:29.313Z,40.37
2018-12-01T09:52:00.840Z,40.93
2018-12-01T09:54:32.039Z,41.97
2018-12-01T09:57:02.198Z,36.87
2018-12-01T09:59:32.232Z,39.73
2018-12-01T10:02:02.255Z,38.90
2018-12-01T10:04:33.635Z,36.30
2018-12-01T10:07:03.708Z,38.67
2018-12-01T10:09:34.617Z,32.00
2018-12-01T10:12:05.239Z,39.90
2018-12-01T10:14:35.768Z,34.00
2018-12-01T10:17:06.223Z,33.90
2018-12-01T10:19:36.261Z,30.40
2018-12-01T10:22:06.299Z,35.63
2018-12-01T10:24:37.375Z,35.77
2018-12-01T10:27:08.367Z,32.57
2018-12-01T10:29:38.419Z,40.37
2018-12-01T10:32:08.768Z,33.07
2018-12-01T10:34:39.103Z,30.37
2018-12-01T10:37:09.647Z,33.87
2018-12-01T10:39:39.846Z,34.60
2018-12-01T10:42:10.461Z,29.97
2018-12-01T10:44:41.451Z,31.97
2018-12-01T10:47:13.888Z,29.77
2018-12-01T10:49:43.900Z,33.53
2018-12-01T10:52:14.083Z,35.70
2018-12-01T10:54:45.130Z,33.23
2018-12-01T10:57:15.444Z,28.10
2018-12-01T10:59:46.127Z,25.90
2018-12-01T11:02:21.387Z,27.43
2018-12-01T11:04:51.604Z,27.33
2018-12-01T11:07:24.155Z,25.03
2018-12-01T11:09:54.670Z,29.10
2018-12-01T11:12:24.867Z,28.97
2018-12-01T11:14:54.881Z,28.80
2018-12-01T11:17:25.114Z,24.97
2018-12-01T11:19:56.007Z,29.27
2018-12-01T11:22:26.417Z,24.23
2018-12-01T11:24:57.688Z,30.57
2018-12-01T11:27:29.023Z,29.43
2018-12-01T11:29:59.359Z,26.60
2018-12-01T11:32:29.551Z,27.10
2018-12-01T11:35:00.250Z,27.97
2018-12-01T11:37:32.688Z,25.50
2018-12-01T11:40:02.785Z,31.30
2018-12-01T11:42:33.152Z,25.03
2018-12-01T11:45:03.226Z,29.67
2018-12-01T11:47:33.299Z,23.87
2018-12-01T11:50:03.849Z,28.77
2018-12-01T11:52:33.848Z,28.17
2018-12-01T11:55:04.027Z,29.60
2018-12-01T11:57:35.219Z,32.77
2018-12-01T12:00:05.529Z,33.17
2018-12-01T12:02:35.987Z,31.13
2018-12-01T12:05:06.409Z,29.00
2018-12-01T12:07:46.876Z,30.87
2018-12-01T12:10:17.359Z,31.83
2018-12-01T12:12:48.720Z,30.43
2018-12-01T12:15:19.553Z,31.20
2018-12-01T12:17:53.753Z,30.50
2018-12-01T12:20:23.823Z,31.67
2018-12-01T12:22:53.964Z,30.63
2018-12-01T12:25:24.424Z,32.07
2018-12-01T12:27:55.208Z,30.40
2018-12-01T12:30:26.297Z,31.40
2018-12-01T12:32:57.133Z,30.53
2018-12-01T12:35:27.701Z,30.67
2018-12-01T12:37:57.675Z,25.00
2018-12-01T12:40:29.758Z,28.13
2018-12-01T12:43:00.735Z,22.47
2018-12-01T12:45:31.283Z,24.93
2018-12-01T12:48:01.320Z,27.00
2018-12-01T12:50:32.271Z,29.17
2018-12-01T12:53:02.705Z,24.80
2018-12-01T12:55:32.928Z,27.50
2018-12-01T12:58:04.032Z,24.47
2018-12-01T13:00:34.496Z,30.90
2018-12-01T13:03:09.672Z,25.40
2018-12-01T13:05:44.709Z,25.30
2018-12-01T13:08:16.135Z,24.60
2018-12-01T13:10:47.024Z,29.77
2018-12-01T13:13:17.711Z,24.07
2018-12-01T13:15:47.749Z,24.83
2018-12-01T13:18:17.783Z,26.90
2018-12-01T13:21:00.356Z,26.77
2018-12-01T13:23:32.159Z,28.17
2018-12-01T13:26:11.145Z,22.47
2018-12-01T13:28:43.423Z,30.07
2018-12-01T13:31:13.456Z,28.23
2018-12-01T13:33:45.418Z,29.73
2018-12-01T13:36:57.756Z,24.00
2018-12-01T13:39:29.071Z,25.77
2018-12-01T13:41:59.501Z,24.30
2018-12-01T13:44:29.631Z,24.17
2018-12-01T13:46:59.724Z,26.43
2018-12-01T13:49:29.803Z,24.37
2018-12-01T13:52:00.603Z,21.70
2018-12-01T13:54:30.691Z,23.90
2018-12-01T13:57:00.947Z,22.27
2018-12-01T13:59:31.176Z,23.57
2018-12-01T14:02:01.344Z,23.33
2018-12-01T14:04:31.348Z,25.63
2018-12-01T14:07:01.563Z,24.33
2018-12-01T14:09:31.960Z,28.53
2018-12-01T14:13:21.214Z,24.17
2018-12-01T14:15:51.805Z,27.50
2018-12-01T14:18:21.890Z,23.33
2018-12-01T14:20:52.176Z,23.63
2018-12-01T14:23:22.589Z,25.23
2018-12-01T14:25:52.702Z,26.83
2018-12-01T14:28:22.929Z,23.43
2018-12-01T14:30:53.487Z,24.03
2018-12-01T14:33:23.583Z,21.47
2018-12-01T14:35:53.584Z,25.73
2018-12-01T14:38:23.968Z,28.57
2018-12-01T14:40:54.012Z,24.70
2018-12-01T14:43:24.500Z,24.50
2018-12-01T14:45:54.792Z,26.33
2018-12-01T14:48:24.835Z,23.37
2018-12-01T14:50:55.907Z,19.37
2018-12-01T14:53:26.104Z,21.70
2018-12-01T14:55:56.251Z,28.77
2018-12-01T14:58:27.158Z,33.87
2018-12-01T15:00:57.847Z,27.03
2018-12-01T15:03:27.990Z,25.47
2018-12-01T15:05:58.937Z,25.23
2018-12-01T15:08:28.976Z,21.10
2018-12-01T15:10:59.191Z,26.27
2018-12-01T15:13:29.674Z,22.13
2018-12-01T15:16:00.223Z,23.77
2018-12-01T15:18:30.400Z,24.00
2018-12-01T15:21:01.060Z,26.57
2018-12-01T15:23:31.101Z,25.67
2018-12-01T15:26:01.431Z,29.13
2018-12-01T15:28:31.989Z,21.37
2018-12-01T15:31:02.742Z,23.77
2018-12-01T15:33:33.423Z,26.13
2018-12-01T15:36:03.918Z,24.83
2018-12-01T15:38:34.047Z,22.60
2018-12-01T15:41:04.688Z,25.27
2018-12-01T15:43:35.056Z,29.10
2018-12-01T15:46:05.592Z,22.27
2018-12-01T15:48:35.722Z,27.23
2018-12-01T15:51:07.847Z,23.40
2018-12-01T15:53:39.166Z,22.93
2018-12-01T15:56:09.408Z,26.37
2018-12-01T15:58:41.269Z,25.33
2018-12-01T16:01:11.453Z,23.27
2018-12-01T16:03:41.556Z,25.20
2018-12-01T16:06:12.380Z,26.67
2018-12-01T16:08:42.634Z,23.30
2018-12-01T16:11:12.704Z,27.73
2018-12-01T16:13:43.098Z,21.60
2018-12-01T16:16:13.139Z,22.27
2018-12-01T16:18:43.179Z,23.97
2018-12-01T16:21:13.226Z,22.83
2018-12-01T16:23:43.259Z,21.40
2018-12-01T16:26:13.343Z,15.27
2018-12-01T16:28:43.767Z,20.43
2018-12-01T16:31:19.696Z,22.93
2018-12-01T16:33:50.458Z,16.77
2018-12-01T16:36:20.627Z,19.77
2018-12-01T16:38:51.461Z,23.13
2018-12-01T16:41:24.691Z,23.37
2018-12-01T16:43:55.137Z,20.20
2018-12-01T16:46:25.333Z,21.67
2018-12-01T16:48:56.567Z,22.63
2018-12-01T16:51:26.655Z,15.37
2018-12-01T16:53:57.352Z,19.53
2018-12-01T16:56:27.391Z,21.20
2018-12-01T16:58:57.994Z,17.80
2018-12-01T17:01:36.110Z,22.20
2018-12-01T17:04:07.153Z,21.83
2018-12-01T17:06:37.836Z,19.03
2018-12-01T17:09:09.403Z,17.73
2018-12-01T17:11:45.351Z,21.07
2018-12-01T17:14:16.335Z,24.53
2018-12-01T17:16:47.204Z,16.90
2018-12-01T17:19:17.988Z,15.50
2018-12-01T17:21:48.468Z,16.30
2018-12-01T17:24:19.655Z,16.27
2018-12-01T17:26:49.713Z,15.57
2018-12-01T17:29:20.639Z,12.30
2018-12-01T17:31:51.452Z,16.73
2018-12-01T17:34:21.527Z,19.30
2018-12-01T17:36:51.609Z,16.63
2018-12-01T17:39:23.254Z,19.20
2018-12-01T17:41:53.829Z,16.63
2018-12-01T17:44:25.510Z,14.73
2018-12-01T17:46:56.241Z,17.17
2018-12-01T17:49:26.765Z,21.37
2018-12-01T17:51:56.791Z,16.27
2018-12-01T17:54:26.867Z,15.10
2018-12-01T17:56:57.139Z,12.60
2018-12-01T17:59:27.261Z,14.07
2018-12-01T18:01:57.337Z,15.63
2018-12-01T18:04:27.372Z,18.77
2018-12-01T18:06:57.648Z,12.77
2018-12-01T18:09:28.024Z,18.73
2018-12-01T18:11:58.008Z,80.97
2018-12-01T18:14:29.132Z,11.47
2018-12-01T18:17:00.192Z,15.80
2018-12-01T18:19:34.040Z,10.13
2018-12-01T18:22:06.424Z,16.13
2018-12-01T18:24:37.616Z,15.27
2018-12-01T18:27:10.615Z,13.93
2018-12-01T18:29:42.055Z,10.53
2018-12-01T18:32:17.445Z,16.37
2018-12-01T18:34:48.560Z,9.67
2018-12-01T18:37:19.913Z,13.40
2018-12-01T18:39:50.886Z,13.03
2018-12-01T18:42:20.888Z,14.07
2018-12-01T18:44:51.817Z,12.97
2018-12-01T18:47:23.038Z,10.83
2018-12-01T18:49:54.244Z,11.07
2018-12-01T18:52:24.300Z,11.90
2018-12-01T18:54:54.303Z,11.30
2018-12-01T18:57:25.035Z,9.30
2018-12-01T18:59:55.804Z,13.23
2018-12-01T19:02:25.891Z,13.90
2018-12-01T19:04:56.659Z,12.07
2018-12-01T19:07:26.931Z,11.90
2018-12-01T19:09:57.964Z,9.67
2018-12-01T19:12:27.956Z,9.27
2018-12-01T19:14:58.429Z,13.90
2018-12-01T19:17:29.136Z,12.70
2018-12-01T19:19:59.655Z,8.80
2018-12-01T19:22:31.240Z,13.17
2018-12-01T19:25:01.268Z,10.83
2018-12-01T19:27:31.939Z,10.07
2018-12-01T19:30:05.074Z,11.40
2018-12-01T19:32:33.045Z,9.70
2018-12-01T19:35:03.087Z,11.00
2018-12-01T19:37:33.055Z,10.43
2018-12-01T19:40:03.061Z,10.77
2018-12-01T19:42:33.068Z,10.77
2018-12-01T19:45:03.084Z,11.53
2018-12-01T19:47:33.116Z,9.90
2018-12-01T19:50:03.585Z,10.63
2018-12-01T19:52:33.569Z,12.57
2018-12-01T19:55:04.251Z,7.57
2018-12-01T19:57:35.311Z,9.40
2018-12-01T20:00:06.159Z,9.07
2018-12-01T20:02:36.158Z,12.33
2018-12-01T20:05:07.324Z,10.27
2018-12-01T20:07:37.419Z,62.47
2018-12-01T20:10:13.484Z,14.03
2018-12-01T20:12:45.019Z,10.73
2018-12-01T20:15:28.332Z,9.20
2018-12-01T20:17:58.640Z,9.23
2018-12-01T20:20:29.365Z,12.37
2018-12-01T20:23:00.890Z,11.00
2018-12-01T20:25:30.876Z,12.33
2018-12-01T20:28:01.280Z,10.63
2018-12-01T20:30:31.332Z,10.20
2018-12-01T20:33:01.416Z,12.03
2018-12-01T20:35:41.248Z,13.20
2018-12-01T20:38:19.702Z,11.20
2018-12-01T20:40:50.855Z,11.83
2018-12-01T20:43:20.864Z,7.00
2018-12-01T20:45:50.907Z,12.63
2018-12-01T20:48:21.025Z,8.10
2018-12-01T20:50:51.056Z,11.83
2018-12-01T20:53:22.336Z,7.87
2018-12-01T20:55:56.289Z,9.73
2018-12-01T20:58:29.437Z,13.17
2018-12-01T21:00:59.427Z,9.13
2018-12-01T21:03:30.283Z,10.70
2018-12-01T21:06:01.391Z,11.37
2018-12-01T21:08:31.861Z,11.63
2018-12-01T21:11:03.988Z,9.77
2018-12-01T21:13:34.588Z,11.50
2018-12-01T21:16:05.110Z,8.60
2018-12-01T21:18:35.592Z,6.37
2018-12-01T21:21:06.835Z,10.27
2018-12-01T21:23:36.875Z,9.67
2018-12-01T21:26:06.935Z,8.70
2018-12-01T21:28:37.296Z,11.77
2018-12-01T21:31:08.689Z,11.27
2018-12-01T21:33:39.217Z,12.27
2018-12-01T21:36:10.208Z,10.57
2018-12-01T21:38:40.687Z,9.80
2018-12-01T21:41:10.713Z,8.77
2018-12-01T21:43:41.612Z,10.43
2018-12-01T21:46:11.657Z,10.37
2018-12-01T21:48:41.673Z,7.50
2018-12-01T21:51:12.288Z,8.00
2018-12-01T21:53:42.464Z,10.33
2018-12-01T21:56:12.488Z,9.00
2018-12-01T21:58:42.999Z,9.00
2018-12-01T22:01:13.652Z,8.60
2018-12-01T22:03:44.684Z,9.87
2018-12-01T22:06:15.400Z,9.50
2018-12-01T22:08:46.114Z,8.47
2018-12-01T22:11:17.176Z,9.20
2018-12-01T22:13:48.127Z,7.70
2018-12-01T22:16:19.122Z,11.10
2018-12-01T22:18:49.756Z,9.03
2018-12-01T22:21:20.704Z,11.43
2018-12-01T22:23:52.000Z,12.03
2018-12-01T22:26:22.161Z,8.07
2018-12-01T22:28:52.745Z,11.53
2018-12-01T22:31:23.832Z,8.90
2018-12-01T22:33:54.335Z,9.13
2018-12-01T22:36:24.320Z,11.33
2018-12-01T22:38:54.728Z,10.87
2018-12-01T22:41:24.739Z,10.90
2018-12-01T22:43:54.731Z,10.63
2018-12-01T22:46:24.831Z,11.33
2018-12-01T22:48:55.508Z,12.17
2018-12-01T22:51:25.471Z,11.97
2018-12-01T22:53:56.071Z,12.90
2018-12-01T22:56:28.835Z,14.87
2018-12-01T22:58:56.803Z,11.83
2018-12-01T23:01:26.936Z,10.60
2018-12-01T23:03:57.098Z,14.20
2018-12-01T23:06:27.184Z,15.40
2018-12-01T23:08:58.045Z,16.73
2018-12-01T23:11:28.570Z,16.87
2018-12-01T23:13:58.851Z,21.77
2018-12-01T23:16:28.845Z,18.40
2018-12-01T23:18:59.332Z,21.37
2018-12-01T23:21:30.675Z,15.63
2018-12-01T23:24:01.135Z,19.57
2018-12-01T23:26:31.545Z,17.57
2018-12-01T23:29:02.356Z,16.00
2018-12-01T23:31:32.908Z,18.70
2018-12-01T23:34:02.936Z,19.63
2018-12-01T23:36:32.981Z,19.03
2018-12-01T23:39:04.539Z,18.90
2018-12-01T23:41:34.580Z,19.27
2018-12-01T23:44:05.273Z,20.70
2018-12-01T23:46:35.795Z,19.07
2018-12-01T23:49:05.887Z,24.77
2018-12-01T23:51:36.158Z,19.83
2018-12-01T23:54:06.769Z,23.20
2018-12-01T23:56:37.220Z,21.30
2018-12-01T23:59:07.524Z,24.03
